createdAt,value
2022-10-20T00:00:06.938Z,41.85
2022-10-20T00:01:06.953Z,41.89
2022-10-20T00:02:06.933Z,41.91
2022-10-20T00:03:07.059Z,41.94
2022-10-20T00:04:06.932Z,41.89
2022-10-20T00:05:06.927Z,42.01
2022-10-20T00:06:06.928Z,41.89
2022-10-20T00:07:06.927Z,42
2022-10-20T00:08:06.966Z,42.04
2022-10-20T00:09:07.007Z,42.02
2022-10-20T00:10:06.934Z,41.91
2022-10-20T00:11:06.921Z,41.97
2022-10-20T00:12:06.917Z,41.99
2022-10-20T00:13:06.932Z,42.03
2022-10-20T00:14:06.932Z,42.01
2022-10-20T00:15:06.919Z,42.02
2022-10-20T00:16:06.929Z,41.96
2022-10-20T00:17:06.940Z,41.97
2022-10-20T00:18:06.916Z,41.93
2022-10-20T00:19:07.488Z,42.01
2022-10-20T00:20:06.983Z,41.78
2022-10-20T00:21:06.913Z,41.91
2022-10-20T00:22:07.026Z,41.91
2022-10-20T00:23:06.924Z,41.8
2022-10-20T00:24:06.921Z,41.86
2022-10-20T00:25:06.907Z,41.83
2022-10-20T00:26:06.922Z,41.73
2022-10-20T00:27:06.911Z,41.84
2022-10-20T00:28:06.904Z,41.78
2022-10-20T00:29:06.964Z,41.74
2022-10-20T00:30:06.906Z,41.7
2022-10-20T00:31:06.919Z,41.74
2022-10-20T00:32:06.897Z,41.63
2022-10-20T00:33:06.905Z,41.82
2022-10-20T00:34:06.896Z,41.75
2022-10-20T00:35:06.918Z,41.74
2022-10-20T00:36:06.908Z,41.61
2022-10-20T00:37:06.891Z,41.58
2022-10-20T00:38:06.901Z,41.59
2022-10-20T00:39:06.897Z,41.63
2022-10-20T00:40:06.891Z,41.56
2022-10-20T00:41:06.907Z,41.6
2022-10-20T00:42:06.886Z,41.52
2022-10-20T00:43:06.882Z,41.59
2022-10-20T00:44:06.902Z,41.42
2022-10-20T00:45:06.899Z,41.6
2022-10-20T00:46:06.885Z,41.5
2022-10-20T00:47:06.886Z,41.47
2022-10-20T00:48:06.892Z,41.54
2022-10-20T00:49:06.891Z,41.48
2022-10-20T00:50:06.882Z,41.48
2022-10-20T00:51:06.921Z,41.51
2022-10-20T00:52:06.892Z,41.47
2022-10-20T00:53:06.883Z,41.48
2022-10-20T00:54:06.872Z,41.48
2022-10-20T00:55:06.876Z,41.35
2022-10-20T00:56:06.893Z,41.38
2022-10-20T00:57:06.894Z,41.3
2022-10-20T00:58:06.879Z,41.15
2022-10-20T00:59:06.877Z,41.25
2022-10-20T01:00:06.880Z,41.35
2022-10-20T01:01:06.867Z,41.23
2022-10-20T01:02:07.012Z,41.29
2022-10-20T01:03:06.895Z,41.16
2022-10-20T01:04:06.858Z,40.92
2022-10-20T01:05:06.856Z,40.81
2022-10-20T01:06:06.905Z,41
2022-10-20T01:07:06.903Z,41.01
2022-10-20T01:08:06.861Z,40.94
2022-10-20T01:09:06.975Z,41.03
2022-10-20T01:10:06.859Z,41.05
2022-10-20T01:11:06.850Z,41.18
2022-10-20T01:12:06.848Z,41.1
2022-10-20T01:13:06.852Z,41.18
2022-10-20T01:14:06.862Z,41.18
2022-10-20T01:15:06.884Z,41.1
2022-10-20T01:16:06.865Z,41.23
2022-10-20T01:17:06.844Z,41.13
2022-10-20T01:18:06.854Z,41.14
2022-10-20T01:19:06.847Z,41.2
2022-10-20T01:20:06.862Z,41.02
2022-10-20T01:21:06.844Z,41.03
2022-10-20T01:22:06.838Z,40.84
2022-10-20T01:23:07.108Z,41.05
2022-10-20T01:24:06.845Z,41.03
2022-10-20T01:25:06.849Z,41.11
2022-10-20T01:26:06.834Z,41.17
2022-10-20T01:27:06.872Z,41.11
2022-10-20T01:28:06.844Z,41.05
2022-10-20T01:29:06.829Z,41.11
2022-10-20T01:30:06.835Z,41.03
2022-10-20T01:31:06.833Z,41.17
2022-10-20T01:32:06.861Z,40.99
2022-10-20T01:33:06.832Z,41.06
2022-10-20T01:34:06.846Z,40.94
2022-10-20T01:35:06.824Z,41.08
2022-10-20T01:36:06.839Z,41.01
2022-10-20T01:37:06.840Z,40.96
2022-10-20T01:38:06.846Z,41.03
2022-10-20T01:39:06.844Z,41
2022-10-20T01:40:06.823Z,40.9
2022-10-20T01:41:06.820Z,40.95
2022-10-20T01:42:06.838Z,40.77
2022-10-20T01:43:06.817Z,40.92
2022-10-20T01:44:06.839Z,40.85
2022-10-20T01:45:06.823Z,40.88
2022-10-20T01:46:06.817Z,40.87
2022-10-20T01:47:06.817Z,40.9
2022-10-20T01:48:06.811Z,40.97
2022-10-20T01:49:06.842Z,40.9
2022-10-20T01:50:06.812Z,40.83
2022-10-20T01:51:06.809Z,40.83
2022-10-20T01:52:06.843Z,40.69
2022-10-20T01:53:06.807Z,40.89
2022-10-20T01:54:06.807Z,40.78
2022-10-20T01:55:06.881Z,40.81
2022-10-20T01:56:06.799Z,40.7
2022-10-20T01:57:06.815Z,40.71
2022-10-20T01:58:06.809Z,40.72
2022-10-20T01:59:06.798Z,40.7
2022-10-20T02:00:06.792Z,40.65
2022-10-20T02:01:06.792Z,40.76
2022-10-20T02:02:06.813Z,40.72
2022-10-20T02:03:06.788Z,40.72
2022-10-20T02:04:06.788Z,40.75
2022-10-20T02:05:06.791Z,40.74
2022-10-20T02:06:06.805Z,40.74
2022-10-20T02:07:06.798Z,40.75
2022-10-20T02:08:06.784Z,40.74
2022-10-20T02:09:06.794Z,40.76
2022-10-20T02:10:06.785Z,40.72
2022-10-20T02:11:06.823Z,40.72
2022-10-20T02:12:06.806Z,40.67
2022-10-20T02:13:06.786Z,40.64
2022-10-20T02:14:06.787Z,40.68
2022-10-20T02:15:06.785Z,40.65
2022-10-20T02:16:06.813Z,40.52
2022-10-20T02:17:06.783Z,40.59
2022-10-20T02:18:06.780Z,40.58
2022-10-20T02:19:06.783Z,40.63
2022-10-20T02:20:06.786Z,40.57
2022-10-20T02:21:06.795Z,40.55
2022-10-20T02:22:06.788Z,40.56
2022-10-20T02:23:06.801Z,40.54
2022-10-20T02:24:06.778Z,40.58
2022-10-20T02:25:06.783Z,40.51
2022-10-20T02:26:06.771Z,40.64
2022-10-20T02:27:06.791Z,40.58
2022-10-20T02:28:06.772Z,40.53
2022-10-20T02:29:06.773Z,40.59
2022-10-20T02:30:06.778Z,40.69
2022-10-20T02:31:06.763Z,40.7
2022-10-20T02:32:06.777Z,40.69
2022-10-20T02:33:06.755Z,40.62
2022-10-20T02:34:06.763Z,40.74
2022-10-20T02:35:07.044Z,40.65
2022-10-20T02:36:06.755Z,40.7
2022-10-20T02:37:06.809Z,40.69
2022-10-20T02:38:06.758Z,40.62
2022-10-20T02:39:06.749Z,40.68
2022-10-20T02:40:06.766Z,40.64
2022-10-20T02:41:06.751Z,40.58
2022-10-20T02:42:06.752Z,40.49
2022-10-20T02:43:06.784Z,40.54
2022-10-20T02:44:06.744Z,40.46
2022-10-20T02:45:06.769Z,40.49
2022-10-20T02:46:06.831Z,40.44
2022-10-20T02:47:06.761Z,40.5
2022-10-20T02:48:07.938Z,40.47
2022-10-20T02:49:06.737Z,40.55
2022-10-20T02:50:06.741Z,40.44
2022-10-20T02:51:06.749Z,40.52
2022-10-20T02:52:06.738Z,40.45
2022-10-20T02:53:06.734Z,40.42
2022-10-20T02:54:06.745Z,40.42
2022-10-20T02:55:06.792Z,40.4
2022-10-20T02:56:06.745Z,40.27
2022-10-20T02:57:06.731Z,40.3
2022-10-20T02:58:06.724Z,40.4
2022-10-20T02:59:06.774Z,40.38
2022-10-20T03:00:06.751Z,40.45
2022-10-20T03:01:06.725Z,40.36
2022-10-20T03:02:06.841Z,40.38
2022-10-20T03:03:06.739Z,40.32
2022-10-20T03:04:06.761Z,40.36
2022-10-20T03:05:06.722Z,40.33
2022-10-20T03:06:06.715Z,40.18
2022-10-20T03:07:06.718Z,40.38
2022-10-20T03:08:06.729Z,40.33
2022-10-20T03:09:06.728Z,40.3
2022-10-20T03:10:06.725Z,40.34
2022-10-20T03:11:06.720Z,40.29
2022-10-20T03:12:06.716Z,40.24
2022-10-20T03:13:06.723Z,40.23
2022-10-20T03:14:06.721Z,40.27
2022-10-20T03:15:06.746Z,40.21
2022-10-20T03:16:06.710Z,40.23
2022-10-20T03:17:06.719Z,40.1
2022-10-20T03:18:06.711Z,40.24
2022-10-20T03:19:09.097Z,40.26
2022-10-20T03:20:06.708Z,40.2
2022-10-20T03:21:06.710Z,40.14
2022-10-20T03:22:06.719Z,40.27
2022-10-20T03:23:06.731Z,40.24
2022-10-20T03:24:06.707Z,40.24
2022-10-20T03:25:06.711Z,40.15
2022-10-20T03:26:06.694Z,40.03
2022-10-20T03:27:06.696Z,40.18
2022-10-20T03:28:06.706Z,40.1
2022-10-20T03:29:06.695Z,40.17
2022-10-20T03:30:06.693Z,40.07
2022-10-20T03:31:06.712Z,40.16
2022-10-20T03:32:06.693Z,40.19
2022-10-20T03:33:06.702Z,40.13
2022-10-20T03:34:06.717Z,40.07
2022-10-20T03:35:06.692Z,40.06
2022-10-20T03:36:06.687Z,40.11
2022-10-20T03:37:06.681Z,40.03
2022-10-20T03:38:06.697Z,40.12
2022-10-20T03:39:06.683Z,40.11
2022-10-20T03:40:06.687Z,40.16
2022-10-20T03:41:06.684Z,40.15
2022-10-20T03:42:06.692Z,40.1
2022-10-20T03:43:06.695Z,40.28
2022-10-20T03:44:06.684Z,40.22
2022-10-20T03:45:06.675Z,40.22
2022-10-20T03:46:06.681Z,40.14
2022-10-20T03:47:06.713Z,39.98
2022-10-20T03:48:06.677Z,40.12
2022-10-20T03:49:06.682Z,40.15
2022-10-20T03:50:06.683Z,40.13
2022-10-20T03:51:06.677Z,40.2
2022-10-20T03:52:06.679Z,40.06
2022-10-20T03:53:06.668Z,40.07
2022-10-20T03:54:06.676Z,40
2022-10-20T03:55:06.660Z,40.14
2022-10-20T03:56:06.674Z,40.01
2022-10-20T03:57:07.863Z,40.07
2022-10-20T03:58:06.664Z,40.15
2022-10-20T03:59:06.676Z,40.15
2022-10-20T04:00:06.659Z,40.09
2022-10-20T04:01:06.677Z,40.17
2022-10-20T04:02:06.749Z,40.08
2022-10-20T04:03:06.685Z,40.09
2022-10-20T04:04:06.658Z,39.96
2022-10-20T04:05:06.688Z,40.07
2022-10-20T04:06:06.660Z,40.02
2022-10-20T04:07:06.654Z,39.99
2022-10-20T04:08:06.688Z,40.05
2022-10-20T04:09:06.743Z,40.18
2022-10-20T04:10:06.664Z,40.15
2022-10-20T04:11:06.649Z,40.15
2022-10-20T04:12:06.644Z,40.08
2022-10-20T04:13:07.404Z,39.98
2022-10-20T04:14:06.656Z,39.96
2022-10-20T04:15:06.676Z,40.05
2022-10-20T04:16:06.636Z,39.98
2022-10-20T04:17:06.633Z,39.98
2022-10-20T04:18:06.638Z,39.97
2022-10-20T04:19:06.665Z,39.95
2022-10-20T04:20:06.648Z,39.88
2022-10-20T04:21:06.648Z,40.07
2022-10-20T04:22:06.650Z,39.89
2022-10-20T04:23:06.661Z,39.95
2022-10-20T04:24:06.638Z,39.91
2022-10-20T04:25:06.635Z,39.94
2022-10-20T04:26:06.660Z,39.89
2022-10-20T04:27:06.623Z,39.89
2022-10-20T04:28:06.637Z,39.89
2022-10-20T04:29:06.623Z,39.87
2022-10-20T04:30:06.620Z,39.89
2022-10-20T04:31:06.642Z,39.93
2022-10-20T04:32:06.637Z,39.85
2022-10-20T04:33:06.637Z,39.88
2022-10-20T04:34:06.616Z,39.86
2022-10-20T04:35:06.641Z,39.82
2022-10-20T04:36:06.615Z,39.77
2022-10-20T04:37:06.615Z,40.23
2022-10-20T04:38:06.633Z,39.81
2022-10-20T04:39:06.607Z,39.92
2022-10-20T04:40:06.610Z,40.09
2022-10-20T04:41:06.616Z,40.12
2022-10-20T04:42:06.611Z,39.97
2022-10-20T04:43:06.628Z,40.09
2022-10-20T04:44:06.610Z,40.3
2022-10-20T04:45:06.618Z,40.1
2022-10-20T04:46:08.437Z,40.03
2022-10-20T04:47:06.608Z,40.1
2022-10-20T04:48:06.614Z,39.86
2022-10-20T04:49:06.599Z,40.13
2022-10-20T04:50:06.613Z,40.35
2022-10-20T04:51:06.632Z,40.22
2022-10-20T04:52:06.595Z,40.06
2022-10-20T04:53:06.638Z,40.21
2022-10-20T04:54:06.606Z,40.22
2022-10-20T04:55:06.603Z,40.25
2022-10-20T04:56:06.596Z,40.45
2022-10-20T04:57:06.587Z,40.53
2022-10-20T04:58:06.601Z,40.51
2022-10-20T04:59:09.659Z,40.53
2022-10-20T05:00:06.593Z,40.61
2022-10-20T05:01:06.586Z,40.71
2022-10-20T05:02:06.694Z,40.35
2022-10-20T05:03:06.660Z,40.54
2022-10-20T05:04:06.592Z,40.69
2022-10-20T05:05:06.583Z,40.56
2022-10-20T05:06:06.588Z,40.7
2022-10-20T05:07:06.618Z,40.64
2022-10-20T05:08:06.599Z,40.55
2022-10-20T05:09:06.663Z,40.72
2022-10-20T05:10:06.580Z,40.55
2022-10-20T05:11:06.573Z,40.73
2022-10-20T05:12:06.640Z,40.8
2022-10-20T05:13:06.579Z,40.5
2022-10-20T05:14:06.585Z,40.38
2022-10-20T05:15:06.564Z,40.55
2022-10-20T05:16:06.652Z,40.34
2022-10-20T05:17:09.301Z,40.71
2022-10-20T05:18:06.570Z,40.72
2022-10-20T05:19:06.582Z,40.68
2022-10-20T05:20:06.568Z,40.51
2022-10-20T05:21:09.400Z,40.43
2022-10-20T05:22:06.563Z,40.81
2022-10-20T05:23:06.623Z,40.77
2022-10-20T05:24:06.586Z,40.48
2022-10-20T05:25:35.172Z,40.95
2022-10-20T05:26:06.561Z,40.94
2022-10-20T05:27:06.560Z,40.59
2022-10-20T05:28:06.554Z,40.57
2022-10-20T05:29:06.567Z,41.02
2022-10-20T05:30:06.573Z,40.79
2022-10-20T05:31:06.554Z,40.67
2022-10-20T05:32:06.559Z,40.5
2022-10-20T05:33:06.556Z,40.8
2022-10-20T05:34:06.588Z,40.56
2022-10-20T05:35:06.546Z,40.5
2022-10-20T05:36:06.545Z,40.57
2022-10-20T05:37:06.547Z,40.95
2022-10-20T05:38:06.555Z,40.83
2022-10-20T05:39:06.582Z,40.88
2022-10-20T05:40:06.546Z,40.88
2022-10-20T05:41:06.548Z,40.81
2022-10-20T05:42:06.544Z,40.84
2022-10-20T05:43:06.545Z,40.8
2022-10-20T05:44:06.557Z,40.73
2022-10-20T05:45:06.535Z,40.61
2022-10-20T05:46:06.548Z,40.51
2022-10-20T05:47:06.529Z,40.64
2022-10-20T05:48:06.555Z,40.7
2022-10-20T05:49:06.531Z,40.43
2022-10-20T05:50:06.533Z,40.47
2022-10-20T05:51:08.387Z,40.83
2022-10-20T05:52:06.552Z,41.26
2022-10-20T05:53:06.523Z,41.14
2022-10-20T05:54:06.526Z,41.08
2022-10-20T05:55:06.550Z,40.9
2022-10-20T05:56:06.526Z,40.88
2022-10-20T05:57:06.545Z,40.95
2022-10-20T05:58:06.522Z,40.82
2022-10-20T05:59:06.523Z,41.41
2022-10-20T06:00:06.536Z,41.22
2022-10-20T06:01:06.519Z,41.21
2022-10-20T06:02:06.528Z,41.41
2022-10-20T06:03:06.517Z,41.51
2022-10-20T06:04:06.514Z,41.25
2022-10-20T06:05:06.529Z,41.24
2022-10-20T06:06:06.512Z,41.36
2022-10-20T06:07:06.535Z,41.25
2022-10-20T06:08:06.509Z,41.23
2022-10-20T06:09:06.528Z,41.49
2022-10-20T06:10:06.504Z,41.43
2022-10-20T06:11:06.541Z,41.5
2022-10-20T06:13:06.531Z,41.55
2022-10-20T06:14:06.503Z,41.53
2022-10-20T06:15:06.526Z,41.63
2022-10-20T06:16:06.504Z,41.52
2022-10-20T06:17:06.518Z,41.73
2022-10-20T06:18:06.510Z,41.64
2022-10-20T06:19:06.495Z,41.56
2022-10-20T06:20:06.495Z,41.48
2022-10-20T06:21:06.511Z,41.64
2022-10-20T06:22:07.057Z,41.5
2022-10-20T06:23:06.528Z,41.31
2022-10-20T06:24:06.510Z,41.72
2022-10-20T06:25:06.487Z,41.09
2022-10-20T06:26:06.497Z,40.85
2022-10-20T06:27:06.525Z,41.17
2022-10-20T06:28:06.487Z,41.16
2022-10-20T06:29:06.502Z,41
2022-10-20T06:30:06.491Z,41.03
2022-10-20T06:31:06.486Z,41.18
2022-10-20T06:32:06.539Z,41.28
2022-10-20T06:33:06.481Z,41.29
2022-10-20T06:34:06.529Z,41.41
2022-10-20T06:35:06.474Z,41.38
2022-10-20T06:36:06.490Z,41.14
2022-10-20T06:37:06.497Z,40.83
2022-10-20T06:38:06.479Z,41.48
2022-10-20T06:39:06.472Z,41.37
2022-10-20T06:40:06.477Z,40.94
2022-10-20T06:41:06.475Z,41.4
2022-10-20T06:42:09.588Z,41.36
2022-10-20T06:43:06.501Z,41.82
2022-10-20T06:44:06.499Z,41.8
2022-10-20T06:45:06.474Z,41.9
2022-10-20T06:46:06.473Z,41.26
2022-10-20T06:47:06.508Z,41.57
2022-10-20T06:48:06.477Z,41.52
2022-10-20T06:49:06.465Z,42.05
2022-10-20T06:50:06.463Z,41.7
2022-10-20T06:51:06.457Z,41.84
2022-10-20T06:52:06.519Z,41.69
2022-10-20T06:53:06.463Z,41.8
2022-10-20T06:54:06.473Z,41.68
2022-10-20T06:55:06.457Z,41.65
2022-10-20T06:56:06.468Z,41.87
2022-10-20T06:57:06.469Z,41.75
2022-10-20T06:58:06.466Z,41.76
2022-10-20T06:59:06.483Z,41.75
2022-10-20T07:00:06.449Z,42.25
2022-10-20T07:01:09.989Z,41.77
2022-10-20T07:02:06.574Z,41.76
2022-10-20T07:03:06.439Z,41.9
2022-10-20T07:04:06.439Z,41.91
2022-10-20T07:05:06.440Z,41.79
2022-10-20T07:06:06.442Z,41.87
2022-10-20T07:07:06.455Z,42.1
2022-10-20T07:08:06.458Z,42.48
2022-10-20T07:09:06.507Z,42.18
2022-10-20T07:10:06.479Z,42.4
2022-10-20T07:11:06.455Z,42.26
2022-10-20T07:12:06.438Z,41.73
2022-10-20T07:13:06.445Z,42.12
2022-10-20T07:14:06.452Z,42.03
2022-10-20T07:15:06.469Z,42.69
2022-10-20T07:16:06.438Z,42.6
2022-10-20T07:17:06.432Z,42.66
2022-10-20T07:18:06.500Z,42.44
2022-10-20T07:19:06.431Z,42.49
2022-10-20T07:20:06.451Z,42.17
2022-10-20T07:21:06.472Z,42.26
2022-10-20T07:22:06.441Z,41.59
2022-10-20T07:23:06.476Z,42.25
2022-10-20T07:24:06.425Z,42.26
2022-10-20T07:25:06.420Z,42.23
2022-10-20T07:26:06.431Z,41.95
2022-10-20T07:27:06.432Z,42.15
2022-10-20T07:28:06.436Z,41.96
2022-10-20T07:29:06.423Z,42.01
2022-10-20T07:30:06.422Z,42.57
2022-10-20T07:31:06.449Z,42.19
2022-10-20T07:32:06.437Z,42.63
2022-10-20T07:33:06.427Z,42.11
2022-10-20T07:34:12.853Z,42.38
2022-10-20T07:35:06.413Z,43
2022-10-20T07:36:06.403Z,42.93
2022-10-20T07:37:06.426Z,42.34
2022-10-20T07:38:06.411Z,42.5
2022-10-20T07:39:06.443Z,42.67
2022-10-20T07:40:06.407Z,42.61
2022-10-20T07:41:06.402Z,42.56
2022-10-20T07:42:06.412Z,42.4
2022-10-20T07:43:06.407Z,42.7
2022-10-20T07:44:06.400Z,42.42
2022-10-20T07:45:06.399Z,43.06
2022-10-20T07:46:06.396Z,42.89
2022-10-20T07:47:06.439Z,43.02
2022-10-20T07:48:06.393Z,42.58
2022-10-20T07:49:38.255Z,42.83
2022-10-20T07:50:06.415Z,43.18
2022-10-20T07:51:06.416Z,44.1
2022-10-20T07:52:06.401Z,42.78
2022-10-20T07:53:06.389Z,42.71
2022-10-20T07:54:06.423Z,42.8
2022-10-20T07:55:17.689Z,42.8
2022-10-20T07:56:06.384Z,43.03
2022-10-20T07:57:06.382Z,42.85
2022-10-20T07:58:06.393Z,42.75
2022-10-20T07:59:06.431Z,42.47
2022-10-20T08:00:06.380Z,43
2022-10-20T08:01:06.378Z,43.04
2022-10-20T08:02:06.420Z,42.87
2022-10-20T08:03:06.421Z,43.29
2022-10-20T08:04:06.462Z,43.61
2022-10-20T08:05:06.380Z,43.45
2022-10-20T08:06:06.375Z,43.11
2022-10-20T08:07:06.388Z,43.54
2022-10-20T08:08:06.379Z,43.31
2022-10-20T08:09:06.504Z,43.05
2022-10-20T08:10:06.384Z,43.06
2022-10-20T08:11:06.367Z,43.61
2022-10-20T08:12:06.382Z,43.56
2022-10-20T08:13:06.363Z,43.84
2022-10-20T08:14:06.359Z,43.2
2022-10-20T08:15:07.388Z,43.2
2022-10-20T08:16:06.389Z,42.8
2022-10-20T08:17:06.378Z,43.32
2022-10-20T08:18:06.363Z,43.41
2022-10-20T08:19:06.446Z,43.53
2022-10-20T08:20:07.384Z,43.31
2022-10-20T08:21:06.361Z,43.05
2022-10-20T08:22:06.352Z,42.83
2022-10-20T08:23:06.387Z,43.62
2022-10-20T08:24:06.365Z,43.1
2022-10-20T08:25:06.379Z,43.13
2022-10-20T08:26:10.638Z,43.16
2022-10-20T08:27:06.352Z,42.95
2022-10-20T08:28:06.366Z,43.29
2022-10-20T08:29:06.368Z,43.4
2022-10-20T08:30:22.926Z,43.27
2022-10-20T08:31:06.339Z,43.13
2022-10-20T08:32:06.338Z,43.1
2022-10-20T08:33:06.359Z,43.07
2022-10-20T08:34:06.339Z,43.11
2022-10-20T08:35:06.360Z,43.17
2022-10-20T08:36:06.341Z,43.54
2022-10-20T08:37:06.391Z,43.31
2022-10-20T08:38:06.351Z,43.08
2022-10-20T08:39:06.629Z,43.02
2022-10-20T08:40:06.336Z,43.15
2022-10-20T08:41:06.335Z,43.22
2022-10-20T08:42:09.314Z,43.31
2022-10-20T08:43:06.350Z,43.11
2022-10-20T08:44:06.329Z,43.04
2022-10-20T08:45:06.334Z,43.25
2022-10-20T08:46:06.392Z,43.25
2022-10-20T08:47:06.339Z,43.5
2022-10-20T08:48:06.325Z,42.87
2022-10-20T08:49:06.338Z,42.99
2022-10-20T08:50:06.345Z,43.12
2022-10-20T08:51:06.352Z,42.81
2022-10-20T08:52:06.332Z,43.06
2022-10-20T08:53:06.331Z,42.78
2022-10-20T08:54:06.334Z,43.2
2022-10-20T08:55:06.328Z,43.04
2022-10-20T08:56:06.314Z,42.91
2022-10-20T08:57:06.315Z,42.9
2022-10-20T08:58:06.342Z,43.14
2022-10-20T08:59:06.325Z,44.22
2022-10-20T09:00:08.995Z,42.92
2022-10-20T09:01:06.334Z,43.05
2022-10-20T09:02:06.361Z,43
2022-10-20T09:03:06.336Z,43.05
2022-10-20T09:04:06.323Z,42.69
2022-10-20T09:05:06.342Z,43.12
2022-10-20T09:06:06.384Z,43.15
2022-10-20T09:07:06.351Z,42.92
2022-10-20T09:08:06.315Z,43.12
2022-10-20T09:09:06.398Z,43.23
2022-10-20T09:10:06.339Z,44.67
2022-10-20T09:11:06.318Z,44.41
2022-10-20T09:12:06.332Z,44.49
2022-10-20T09:13:06.316Z,45.77
2022-10-20T09:14:06.325Z,44.94
2022-10-20T09:15:06.316Z,45.65
2022-10-20T09:16:06.309Z,45.92
2022-10-20T09:17:09.155Z,45.45
2022-10-20T09:18:06.320Z,46.28
2022-10-20T09:19:06.311Z,46.38
2022-10-20T09:20:06.324Z,46.54
2022-10-20T09:21:06.331Z,46.06
2022-10-20T09:22:06.304Z,46.54
2022-10-20T09:23:16.473Z,46.92
2022-10-20T09:24:06.305Z,46.29
2022-10-20T09:25:06.305Z,47.76
2022-10-20T09:26:06.314Z,47.35
2022-10-20T09:27:06.313Z,46.84
2022-10-20T09:28:06.301Z,46.69
2022-10-20T09:29:13.109Z,46.61
2022-10-20T09:30:06.334Z,46.02
2022-10-20T09:31:06.289Z,46.57
2022-10-20T09:32:28.028Z,48.02
2022-10-20T09:33:06.313Z,48.33
2022-10-20T09:34:06.291Z,48.35
2022-10-20T09:35:06.290Z,47.37
2022-10-20T09:36:06.368Z,46
2022-10-20T09:37:06.289Z,46.73
2022-10-20T09:38:06.288Z,46.43
2022-10-20T09:39:06.323Z,46.34
2022-10-20T09:40:06.285Z,46.37
2022-10-20T09:41:06.286Z,46.36
2022-10-20T09:42:06.297Z,46.11
2022-10-20T09:43:06.284Z,45.45
2022-10-20T09:44:06.278Z,45.55
2022-10-20T09:45:06.274Z,45.38
2022-10-20T09:46:06.320Z,44.85
2022-10-20T09:47:06.291Z,44.8
